Time;durP1;ratioP1;P1;durP2;ratioP2;P2;SDS_P1;SDS_P2;PMS_P1;PMS_P2;Temp;Humidity;BMP_temperature;BMP_pressure;BME280_temperature;BME280_humidity;BME280_pressure;Samples;Min_cycle;Max_cycle;Signal;HPM_P1;HPM_P2
2022/08/27 00:01:52;;;;;;;18.00;17.00;;;;;;;;;;5133281;27;20195;-76
2022/08/27 00:04:19;;;;;;;18.00;17.00;;;;;;;;;;5133572;27;20200;-76
2022/08/27 00:06:46;;;;;;;18.35;17.27;;;;;;;;;;5133086;27;20311;-76
2022/08/27 00:09:13;;;;;;;18.35;17.25;;;;;;;;;;5133190;27;20192;-75
2022/08/27 00:11:39;;;;;;;17.90;16.90;;;;;;;;;;5133069;27;20235;-76
2022/08/27 00:14:07;;;;;;;17.75;16.75;;;;;;;;;;5133079;27;20653;-76
2022/08/27 00:16:34;;;;;;;17.92;16.92;;;;;;;;;;5133349;27;20215;-75
2022/08/27 00:19:01;;;;;;;18.10;17.10;;;;;;;;;;5133029;27;20257;-76
2022/08/27 00:21:28;;;;;;;17.88;16.88;;;;;;;;;;5133296;28;20279;-76
2022/08/27 00:23:54;;;;;;;18.00;17.00;;;;;;;;;;5133223;27;20643;-76
2022/08/27 00:26:21;;;;;;;18.42;17.33;;;;;;;;;;5132927;27;20315;-75
2022/08/27 00:28:49;;;;;;;18.40;17.30;;;;;;;;;;5133250;28;20188;-75
2022/08/27 00:31:17;;;;;;;17.52;16.52;;;;;;;;;;5132928;28;20588;-76
2022/08/27 00:33:44;;;;;;;17.92;16.92;;;;;;;;;;5132918;28;20733;-76
2022/08/27 00:36:11;;;;;;;17.73;16.73;;;;;;;;;;5133015;28;20235;-76
2022/08/27 00:38:39;;;;;;;17.73;16.73;;;;;;;;;;5132861;28;20354;-75
2022/08/27 00:41:07;;;;;;;17.90;16.90;;;;;;;;;;5132792;28;20279;-76
2022/08/27 00:43:44;;;;;;;17.70;16.70;;;;;;;;;;5133310;28;20276;-76
2022/08/27 00:46:14;;;;;;;17.58;16.58;;;;;;;;;;5133056;28;20218;-76
2022/08/27 00:48:42;;;;;;;17.60;16.60;;;;;;;;;;5132807;28;20196;-76
2022/08/27 00:51:09;;;;;;;17.80;16.80;;;;;;;;;;5133089;27;20239;-76
2022/08/27 00:53:36;;;;;;;17.60;16.60;;;;;;;;;;5133239;28;20223;-75
2022/08/27 00:56:05;;;;;;;17.65;16.65;;;;;;;;;;5133055;27;20196;-76
2022/08/27 00:58:32;;;;;;;17.90;16.90;;;;;;;;;;5132645;28;20203;-76
2022/08/27 01:00:59;;;;;;;17.70;16.70;;;;;;;;;;5132972;28;20228;-75
2022/08/27 01:03:27;;;;;;;17.52;16.52;;;;;;;;;;5133975;27;20328;-76
2022/08/27 01:05:56;;;;;;;17.90;16.90;;;;;;;;;;5136819;27;20228;-76
2022/08/27 01:08:24;;;;;;;17.95;16.95;;;;;;;;;;5136790;27;20196;-76
2022/08/27 01:10:52;;;;;;;17.90;16.90;;;;;;;;;;5136547;27;20201;-76
2022/08/27 01:13:20;;;;;;;17.90;16.90;;;;;;;;;;5136504;27;20192;-76
2022/08/27 01:15:47;;;;;;;18.05;17.05;;;;;;;;;;5136418;27;20192;-76
2022/08/27 01:18:14;;;;;;;17.80;16.80;;;;;;;;;;5136741;27;20256;-76
2022/08/27 01:20:44;;;;;;;17.75;16.75;;;;;;;;;;5136611;27;20238;-76
2022/08/27 01:23:14;;;;;;;17.17;16.27;;;;;;;;;;5136547;27;20218;-76
2022/08/27 01:25:43;;;;;;;17.67;16.77;;;;;;;;;;5136563;27;20569;-77
2022/08/27 01:28:10;;;;;;;17.33;16.42;;;;;;;;;;5136691;27;20272;-76
2022/08/27 01:30:38;;;;;;;17.40;16.50;;;;;;;;;;5136223;27;20219;-76
2022/08/27 01:33:08;;;;;;;17.38;16.48;;;;;;;;;;5136068;27;20192;-76
2022/08/27 01:35:35;;;;;;;17.13;16.30;;;;;;;;;;5136380;27;20200;-76
2022/08/27 01:38:02;;;;;;;16.95;16.15;;;;;;;;;;5136374;27;20577;-76
2022/08/27 01:40:28;;;;;;;17.08;16.27;;;;;;;;;;5135951;27;20196;-76
2022/08/27 01:42:57;;;;;;;16.70;15.90;;;;;;;;;;5136249;27;20200;-76
2022/08/27 01:45:25;;;;;;;16.63;15.82;;;;;;;;;;5135738;27;20228;-76
2022/08/27 01:47:51;;;;;;;16.52;15.73;;;;;;;;;;5135857;27;20612;-76
2022/08/27 01:50:19;;;;;;;16.45;15.65;;;;;;;;;;5135816;27;20192;-76
2022/08/27 01:52:46;;;;;;;16.10;15.40;;;;;;;;;;5136095;27;20228;-75
2022/08/27 01:55:14;;;;;;;16.23;15.43;;;;;;;;;;5135684;27;20189;-76
2022/08/27 01:57:41;;;;;;;16.60;15.80;;;;;;;;;;5135939;27;20252;-76
2022/08/27 02:00:11;;;;;;;16.30;15.60;;;;;;;;;;5135871;27;20271;-76
2022/08/27 02:02:38;;;;;;;16.17;15.48;;;;;;;;;;5135564;27;20188;-76
2022/08/27 02:05:05;;;;;;;16.45;15.65;;;;;;;;;;5135498;27;20231;-76
2022/08/27 02:07:32;;;;;;;16.33;15.57;;;;;;;;;;5135691;27;20220;-76
2022/08/27 02:09:59;;;;;;;16.50;15.70;;;;;;;;;;5135426;27;20231;-75
2022/08/27 02:12:26;;;;;;;16.70;15.90;;;;;;;;;;5135846;27;20257;-76
2022/08/27 02:14:53;;;;;;;16.55;15.75;;;;;;;;;;5134977;27;20189;-75
2022/08/27 02:17:21;;;;;;;15.95;15.25;;;;;;;;;;5135262;27;20283;-75
2022/08/27 02:19:47;;;;;;;16.55;15.75;;;;;;;;;;5135243;27;20239;-76
2022/08/27 02:22:15;;;;;;;16.77;15.98;;;;;;;;;;5135717;27;20200;-75
2022/08/27 02:24:41;;;;;;;16.48;15.68;;;;;;;;;;5135130;27;20238;-76
2022/08/27 02:27:08;;;;;;;16.70;15.90;;;;;;;;;;5134969;27;20228;-75
2022/08/27 02:29:35;;;;;;;16.60;15.80;;;;;;;;;;5135357;27;20192;-75
2022/08/27 02:32:02;;;;;;;16.27;15.48;;;;;;;;;;5134975;27;20263;-76
2022/08/27 02:34:30;;;;;;;16.40;15.60;;;;;;;;;;5135249;27;20276;-75
2022/08/27 02:36:57;;;;;;;16.45;15.65;;;;;;;;;;5135123;27;20658;-75
2022/08/27 02:39:24;;;;;;;16.35;15.57;;;;;;;;;;5135149;27;20196;-75
2022/08/27 02:41:50;;;;;;;16.80;16.00;;;;;;;;;;5135107;27;20201;-76
2022/08/27 02:44:17;;;;;;;16.33;15.52;;;;;;;;;;5134750;27;20197;-76
2022/08/27 02:46:44;;;;;;;16.92;16.13;;;;;;;;;;5134946;27;20403;-76
2022/08/27 02:49:11;;;;;;;16.67;15.88;;;;;;;;;;5135011;27;20249;-76
2022/08/27 02:51:39;;;;;;;16.55;15.75;;;;;;;;;;5134800;27;20713;-75
2022/08/27 02:54:06;;;;;;;16.48;15.68;;;;;;;;;;5134851;27;20196;-76
2022/08/27 02:56:32;;;;;;;16.60;15.80;;;;;;;;;;5134422;27;20661;-75
2022/08/27 02:58:59;;;;;;;16.90;16.10;;;;;;;;;;5134792;27;20318;-76
2022/08/27 03:01:26;;;;;;;16.15;15.45;;;;;;;;;;5134746;27;20203;-76
2022/08/27 03:03:53;;;;;;;16.15;15.45;;;;;;;;;;5134353;27;20200;-76
2022/08/27 03:06:19;;;;;;;16.08;15.38;;;;;;;;;;5134552;27;20312;-76
2022/08/27 03:08:48;;;;;;;15.98;15.27;;;;;;;;;;5134188;27;20641;-76
2022/08/27 03:11:14;;;;;;;16.05;15.35;;;;;;;;;;5134592;27;20223;-75
2022/08/27 03:13:41;;;;;;;16.50;15.70;;;;;;;;;;5134052;27;20692;-76
2022/08/27 03:16:08;;;;;;;16.08;15.38;;;;;;;;;;5134429;27;20224;-76
2022/08/27 03:18:34;;;;;;;16.08;15.38;;;;;;;;;;5134049;27;20744;-76
2022/08/27 03:21:01;;;;;;;15.88;15.18;;;;;;;;;;5133965;27;20283;-76
2022/08/27 03:23:31;;;;;;;15.90;15.20;;;;;;;;;;5134000;27;20192;-76
2022/08/27 03:26:00;;;;;;;15.85;15.15;;;;;;;;;;5133651;27;20189;-76
2022/08/27 03:28:28;;;;;;;15.63;14.93;;;;;;;;;;5133882;27;20276;-75
2022/08/27 03:30:57;;;;;;;15.82;15.13;;;;;;;;;;5133670;27;20604;-75
2022/08/27 03:33:25;;;;;;;16.10;15.40;;;;;;;;;;5133793;27;20235;-76
2022/08/27 03:35:52;;;;;;;16.00;15.30;;;;;;;;;;5133985;27;20192;-76
2022/08/27 03:38:19;;;;;;;16.50;15.80;;;;;;;;;;5134194;27;20261;-75
2022/08/27 03:40:46;;;;;;;16.23;15.52;;;;;;;;;;5133926;27;20188;-75
2022/08/27 03:43:15;;;;;;;16.33;15.63;;;;;;;;;;5133561;27;20745;-76
2022/08/27 03:45:43;;;;;;;16.15;15.45;;;;;;;;;;5133590;27;20192;-76
2022/08/27 03:48:10;;;;;;;16.17;15.48;;;;;;;;;;5133745;27;20228;-76
2022/08/27 03:50:37;;;;;;;16.10;15.40;;;;;;;;;;5133424;27;20653;-76
2022/08/27 03:53:04;;;;;;;15.93;15.23;;;;;;;;;;5133420;27;20225;-75
2022/08/27 03:55:31;;;;;;;15.77;15.07;;;;;;;;;;5133351;27;20673;-76
2022/08/27 03:57:58;;;;;;;15.90;15.20;;;;;;;;;;5133702;27;20200;-75
2022/08/27 04:00:26;;;;;;;15.60;14.90;;;;;;;;;;5133295;27;20287;-76
2022/08/27 04:02:53;;;;;;;15.35;14.70;;;;;;;;;;5133584;27;20295;-76
2022/08/27 04:05:20;;;;;;;15.35;14.75;;;;;;;;;;5133285;27;20196;-75
2022/08/27 04:07:47;;;;;;;15.68;14.98;;;;;;;;;;5133400;27;20312;-76
2022/08/27 04:10:15;;;;;;;15.88;15.18;;;;;;;;;;5133526;27;20192;-76
2022/08/27 04:12:42;;;;;;;15.70;15.00;;;;;;;;;;5133434;27;20189;-76
2022/08/27 04:15:09;;;;;;;16.60;15.80;;;;;;;;;;5133101;27;20236;-76
2022/08/27 04:17:38;;;;;;;16.98;16.17;;;;;;;;;;5133448;27;20563;-76
2022/08/27 04:20:06;;;;;;;17.50;16.67;;;;;;;;;;5133111;27;20276;-76
2022/08/27 04:22:33;;;;;;;17.35;16.50;;;;;;;;;;5133083;27;20593;-76
2022/08/27 04:25:00;;;;;;;17.70;16.80;;;;;;;;;;5133182;28;20578;-76
2022/08/27 04:27:27;;;;;;;17.55;16.65;;;;;;;;;;5132909;28;20231;-76
2022/08/27 04:29:55;;;;;;;17.30;16.40;;;;;;;;;;5133288;27;20192;-75
2022/08/27 04:32:22;;;;;;;17.67;16.77;;;;;;;;;;5132756;28;20232;-76
2022/08/27 04:34:53;;;;;;;17.65;16.75;;;;;;;;;;5133190;28;20208;-76
2022/08/27 04:37:19;;;;;;;17.58;16.67;;;;;;;;;;5133794;27;20188;-76
2022/08/27 04:39:46;;;;;;;18.20;17.20;;;;;;;;;;5137491;27;20253;-76
2022/08/27 04:42:13;;;;;;;17.98;16.98;;;;;;;;;;5137615;27;20188;-76
2022/08/27 04:44:39;;;;;;;17.90;16.90;;;;;;;;;;5137083;27;20726;-76
2022/08/27 04:47:06;;;;;;;18.08;17.08;;;;;;;;;;5137240;27;20319;-77
2022/08/27 04:49:33;;;;;;;17.77;16.77;;;;;;;;;;5137496;27;20192;-76
2022/08/27 04:52:02;;;;;;;17.77;16.77;;;;;;;;;;5137277;27;20192;-77
2022/08/27 04:54:28;;;;;;;18.10;17.00;;;;;;;;;;5137105;27;20597;-77
2022/08/27 04:56:55;;;;;;;17.65;16.55;;;;;;;;;;5137193;27;20279;-77
2022/08/27 04:59:22;;;;;;;17.60;16.50;;;;;;;;;;5136782;27;20241;-77
2022/08/27 05:01:49;;;;;;;17.27;16.27;;;;;;;;;;5137045;27;20271;-77
2022/08/27 05:04:17;;;;;;;17.25;16.25;;;;;;;;;;5137063;27;20245;-77
2022/08/27 05:06:44;;;;;;;17.20;16.20;;;;;;;;;;5136588;27;20704;-77
2022/08/27 05:09:13;;;;;;;17.27;16.27;;;;;;;;;;5136898;27;20636;-77
2022/08/27 05:11:40;;;;;;;17.05;16.05;;;;;;;;;;5136508;27;20232;-77
2022/08/27 05:14:09;;;;;;;17.10;16.10;;;;;;;;;;5136520;27;20189;-77
2022/08/27 05:16:36;;;;;;;17.20;16.20;;;;;;;;;;5136790;27;20653;-76
2022/08/27 05:19:04;;;;;;;16.98;15.98;;;;;;;;;;5136435;27;20214;-77
2022/08/27 05:21:33;;;;;;;17.10;16.10;;;;;;;;;;5136685;27;20249;-77
2022/08/27 05:24:01;;;;;;;17.70;16.60;;;;;;;;;;5136854;27;20275;-77
2022/08/27 05:26:30;;;;;;;17.58;16.48;;;;;;;;;;5136196;27;20661;-77
2022/08/27 05:28:58;;;;;;;17.88;16.77;;;;;;;;;;5136168;27;20669;-77
2022/08/27 05:31:25;;;;;;;17.65;16.55;;;;;;;;;;5135943;27;20717;-77
2022/08/27 05:33:51;;;;;;;17.80;16.60;;;;;;;;;;5136491;27;20591;-77
2022/08/27 05:36:20;;;;;;;17.92;16.75;;;;;;;;;;5136348;27;20630;-77
2022/08/27 05:38:48;;;;;;;17.65;16.48;;;;;;;;;;5136371;27;20581;-78
2022/08/27 05:41:16;;;;;;;17.63;16.50;;;;;;;;;;5135979;27;20192;-78
2022/08/27 05:43:44;;;;;;;17.77;16.58;;;;;;;;;;5135938;27;20597;-78
2022/08/27 05:46:13;;;;;;;18.02;16.83;;;;;;;;;;5136416;27;20223;-78
2022/08/27 05:48:40;;;;;;;18.17;17.00;;;;;;;;;;5135196;27;20230;-79
2022/08/27 05:51:08;;;;;;;17.67;16.58;;;;;;;;;;5136000;27;20196;-78
2022/08/27 05:53:34;;;;;;;17.98;16.85;;;;;;;;;;5135822;27;20228;-78
2022/08/27 05:56:01;;;;;;;17.75;16.65;;;;;;;;;;5136065;27;20275;-78
2022/08/27 06:01:13;;;;;;;17.70;16.60;;;;;;;;;;5135850;27;20187;-78
2022/08/27 06:03:40;;;;;;;17.67;16.58;;;;;;;;;;5136425;27;20235;-78
2022/08/27 06:06:09;;;;;;;17.42;16.33;;;;;;;;;;5135793;27;20279;-78
2022/08/27 06:08:36;;;;;;;17.65;16.45;;;;;;;;;;5136118;27;20263;-78
2022/08/27 06:11:04;;;;;;;17.42;16.33;;;;;;;;;;5135987;27;20248;-78
2022/08/27 06:13:31;;;;;;;17.65;16.45;;;;;;;;;;5135497;27;20192;-78
2022/08/27 06:16:01;;;;;;;17.60;16.40;;;;;;;;;;5135304;27;20677;-79
2022/08/27 06:18:29;;;;;;;17.83;16.63;;;;;;;;;;5135356;27;20192;-78
2022/08/27 06:20:55;;;;;;;17.60;16.50;;;;;;;;;;5135564;27;20741;-80
2022/08/27 06:23:22;;;;;;;17.45;16.35;;;;;;;;;;5135970;27;20246;-78
2022/08/27 06:25:49;;;;;;;17.73;16.52;;;;;;;;;;5135519;27;20284;-78
2022/08/27 06:28:16;;;;;;;18.17;16.98;;;;;;;;;;5135145;27;20310;-78
2022/08/27 06:30:43;;;;;;;18.70;17.50;;;;;;;;;;5135165;27;20315;-78
2022/08/27 06:33:10;;;;;;;17.88;16.67;;;;;;;;;;5135274;27;20184;-78
2022/08/27 06:35:38;;;;;;;18.30;17.10;;;;;;;;;;5135267;27;20236;-78
2022/08/27 06:38:05;;;;;;;17.90;16.70;;;;;;;;;;5135268;27;20275;-77
2022/08/27 06:40:32;;;;;;;18.40;17.20;;;;;;;;;;5135375;27;20189;-78
2022/08/27 06:42:59;;;;;;;18.17;16.98;;;;;;;;;;5134871;27;20671;-78
2022/08/27 06:45:26;;;;;;;18.08;16.88;;;;;;;;;;5135006;27;20255;-79
2022/08/27 06:47:54;;;;;;;18.90;17.60;;;;;;;;;;5134624;27;20319;-78
2022/08/27 06:50:21;;;;;;;18.70;17.40;;;;;;;;;;5134584;27;20193;-77
2022/08/27 06:52:49;;;;;;;19.15;17.83;;;;;;;;;;5134651;27;20223;-79
2022/08/27 06:55:16;;;;;;;19.20;17.80;;;;;;;;;;5134579;27;20227;-79
2022/08/27 06:57:43;;;;;;;19.00;17.70;;;;;;;;;;5134790;27;20271;-80
2022/08/27 07:00:11;;;;;;;18.80;17.50;;;;;;;;;;5134136;27;20201;-79
2022/08/27 07:02:38;;;;;;;18.67;17.38;;;;;;;;;;5133629;27;20597;-79
2022/08/27 07:05:05;;;;;;;18.67;17.38;;;;;;;;;;5134628;27;20243;-80
2022/08/27 07:07:33;;;;;;;20.00;18.60;;;;;;;;;;5134162;27;20266;-79
2022/08/27 07:10:01;;;;;;;18.45;17.15;;;;;;;;;;5134253;27;20195;-80
2022/08/27 07:12:28;;;;;;;18.60;17.30;;;;;;;;;;5134384;27;20235;-79
2022/08/27 07:14:54;;;;;;;20.98;19.17;;;;;;;;;;5134430;27;20275;-79
2022/08/27 07:17:21;;;;;;;19.00;17.70;;;;;;;;;;5134099;27;20666;-80
2022/08/27 07:19:48;;;;;;;19.45;18.15;;;;;;;;;;5134352;27;20245;-81
2022/08/27 07:22:15;;;;;;;18.70;17.40;;;;;;;;;;5134346;27;20569;-79
2022/08/27 07:24:41;;;;;;;19.10;17.80;;;;;;;;;;5134311;27;20279;-80
2022/08/27 07:27:10;;;;;;;18.88;17.58;;;;;;;;;;5133760;27;20192;-80
2022/08/27 07:29:36;;;;;;;19.02;17.67;;;;;;;;;;5134103;27;20286;-81
2022/08/27 07:32:03;;;;;;;19.05;17.75;;;;;;;;;;5133887;27;20281;-80
2022/08/27 07:34:30;;;;;;;18.83;17.52;;;;;;;;;;5133753;27;20188;-80
2022/08/27 07:36:57;;;;;;;19.15;17.85;;;;;;;;;;5134042;27;20196;-79
2022/08/27 07:39:24;;;;;;;19.05;17.75;;;;;;;;;;5133668;27;20643;-80
2022/08/27 07:44:36;;;;;;;19.23;17.83;;;;;;;;;;5134099;27;20184;-79
2022/08/27 07:47:02;;;;;;;19.50;18.10;;;;;;;;;;5133565;27;20200;-81
2022/08/27 07:49:30;;;;;;;19.95;18.48;;;;;;;;;;5133556;27;20224;-80
2022/08/27 07:51:57;;;;;;;19.58;18.17;;;;;;;;;;5133495;27;20689;-80
2022/08/27 07:54:23;;;;;;;19.70;18.30;;;;;;;;;;5133776;27;20622;-80
2022/08/27 07:56:50;;;;;;;21.02;19.42;;;;;;;;;;5133836;27;20196;-81
2022/08/27 07:59:18;;;;;;;20.95;19.45;;;;;;;;;;5133370;27;20283;-80
2022/08/27 08:01:47;;;;;;;19.60;18.20;;;;;;;;;;5133371;27;20192;-78
2022/08/27 08:04:14;;;;;;;19.98;18.48;;;;;;;;;;5133360;27;20192;-82
2022/08/27 08:06:41;;;;;;;20.27;18.77;;;;;;;;;;5132299;27;20271;-81
2022/08/27 08:09:08;;;;;;;20.27;18.77;;;;;;;;;;5133052;27;20232;-83
2022/08/27 08:11:35;;;;;;;20.08;18.58;;;;;;;;;;5133281;27;20239;-80
2022/08/27 08:14:02;;;;;;;20.23;18.73;;;;;;;;;;5133304;27;20226;-80
2022/08/27 08:16:28;;;;;;;20.90;19.30;;;;;;;;;;5133091;27;20192;-78
2022/08/27 08:18:58;;;;;;;20.25;18.75;;;;;;;;;;5133340;27;20192;-82
2022/08/27 08:21:26;;;;;;;20.73;19.13;;;;;;;;;;5133106;27;20683;-80
2022/08/27 08:23:52;;;;;;;19.90;18.45;;;;;;;;;;5133084;27;20248;-79
2022/08/27 08:26:19;;;;;;;20.20;18.70;;;;;;;;;;5133052;27;20192;-79
2022/08/27 08:28:46;;;;;;;20.83;19.30;;;;;;;;;;5133235;27;20232;-79
2022/08/27 08:31:13;;;;;;;20.35;18.85;;;;;;;;;;5132920;28;20706;-79
2022/08/27 08:33:41;;;;;;;20.15;18.65;;;;;;;;;;5133514;27;20609;-79
2022/08/27 08:36:10;;;;;;;20.35;18.85;;;;;;;;;;5132955;28;20196;-80
2022/08/27 08:38:38;;;;;;;20.17;18.67;;;;;;;;;;5133453;28;20275;-80
2022/08/27 08:41:06;;;;;;;20.35;18.85;;;;;;;;;;5132932;28;20280;-79
2022/08/27 08:43:34;;;;;;;20.45;18.88;;;;;;;;;;5132948;28;20284;-80
2022/08/27 08:46:05;;;;;;;20.42;18.92;;;;;;;;;;5132799;28;20193;-80
2022/08/27 08:48:31;;;;;;;23.17;21.48;;;;;;;;;;5133142;28;20216;-79
2022/08/27 08:51:01;;;;;;;22.50;20.83;;;;;;;;;;5133067;28;20220;-81
2022/08/27 08:53:33;;;;;;;20.75;19.25;;;;;;;;;;5132731;28;20214;-79
2022/08/27 08:56:02;;;;;;;20.48;18.98;;;;;;;;;;5132829;27;20181;-80
2022/08/27 08:58:33;;;;;;;21.85;20.25;;;;;;;;;;5132746;27;20239;-79
2022/08/27 09:01:00;;;;;;;21.15;19.55;;;;;;;;;;5132677;28;20191;-79
2022/08/27 09:03:28;;;;;;;21.00;19.40;;;;;;;;;;5132943;28;20188;-80
2022/08/27 09:05:56;;;;;;;20.70;19.20;;;;;;;;;;5131417;28;20280;-81
2022/08/27 09:08:26;;;;;;;21.20;19.60;;;;;;;;;;5132810;28;20796;-79
2022/08/27 09:10:56;;;;;;;21.27;19.67;;;;;;;;;;5132937;27;20727;-78
2022/08/27 09:13:25;;;;;;;23.75;21.88;;;;;;;;;;5132888;28;20185;-79
2022/08/27 09:15:54;;;;;;;21.60;20.00;;;;;;;;;;5132543;28;20223;-77
2022/08/27 09:18:20;;;;;;;21.27;19.67;;;;;;;;;;5132561;27;20189;-79
2022/08/27 09:20:50;;;;;;;35.47;21.42;;;;;;;;;;5132475;28;20580;-75
2022/08/27 09:23:20;;;;;;;21.63;20.02;;;;;;;;;;5132542;27;20196;-78
2022/08/27 09:25:47;;;;;;;21.48;19.88;;;;;;;;;;5135844;27;20193;-78
2022/08/27 09:31:05;;;;;;;24.00;22.20;;;;;;;;;;5136497;27;20234;-79
2022/08/27 09:33:32;;;;;;;22.98;21.27;;;;;;;;;;5136171;27;20280;-78
2022/08/27 09:36:01;;;;;;;21.65;19.95;;;;;;;;;;5136153;27;20253;-80
2022/08/27 09:38:29;;;;;;;22.05;20.35;;;;;;;;;;5136359;27;20204;-80
2022/08/27 09:40:56;;;;;;;23.20;21.50;;;;;;;;;;5136341;27;20228;-82
2022/08/27 09:43:27;;;;;;;22.20;20.50;;;;;;;;;;5135957;27;20196;-78
2022/08/27 09:45:55;;;;;;;21.65;20.02;;;;;;;;;;5136009;27;20185;-78
2022/08/27 09:48:23;;;;;;;21.77;20.08;;;;;;;;;;5135824;27;20269;-79
2022/08/27 09:50:52;;;;;;;21.50;19.90;;;;;;;;;;5135807;27;20727;-77
2022/08/27 09:53:20;;;;;;;21.90;20.20;;;;;;;;;;5135771;27;20210;-78
2022/08/27 09:55:48;;;;;;;21.58;19.98;;;;;;;;;;5135760;27;20212;-78
2022/08/27 09:58:18;;;;;;;22.13;20.42;;;;;;;;;;5136035;27;20286;-78
2022/08/27 10:00:47;;;;;;;22.35;20.65;;;;;;;;;;5136012;27;20184;-80
2022/08/27 10:03:14;;;;;;;21.77;20.08;;;;;;;;;;5135948;27;20673;-79
2022/08/27 10:05:44;;;;;;;22.20;20.50;;;;;;;;;;5135563;27;20196;-79
2022/08/27 10:08:17;;;;;;;22.23;20.52;;;;;;;;;;5135402;27;20193;-78
2022/08/27 10:10:46;;;;;;;21.98;20.38;;;;;;;;;;5135516;27;20238;-80
2022/08/27 10:13:16;;;;;;;22.08;20.30;;;;;;;;;;5135475;27;20199;-81
2022/08/27 10:15:47;;;;;;;21.48;19.77;;;;;;;;;;5135378;27;20202;-79
2022/08/27 10:18:19;;;;;;;21.58;19.83;;;;;;;;;;5135398;27;20657;-77
2022/08/27 10:20:52;;;;;;;21.20;19.50;;;;;;;;;;5135578;27;20295;-77
2022/08/27 10:23:22;;;;;;;21.27;19.58;;;;;;;;;;5135248;27;20693;-78
2022/08/27 10:25:54;;;;;;;22.00;20.30;;;;;;;;;;5135140;27;20199;-77
2022/08/27 10:28:30;;;;;;;22.20;20.50;;;;;;;;;;5135478;27;20329;-78
2022/08/27 10:31:07;;;;;;;22.52;20.83;;;;;;;;;;5135107;27;20682;-77
2022/08/27 10:33:39;;;;;;;22.70;21.00;;;;;;;;;;5135638;27;20191;-78
2022/08/27 10:36:08;;;;;;;22.60;20.90;;;;;;;;;;5134776;27;20268;-79
2022/08/27 10:38:37;;;;;;;22.80;21.00;;;;;;;;;;5134971;27;20200;-78
2022/08/27 10:41:11;;;;;;;24.30;22.40;;;;;;;;;;5134834;27;20680;-78
2022/08/27 10:43:55;;;;;;;23.40;21.60;;;;;;;;;;5135162;27;20184;-79
2022/08/27 10:46:35;;;;;;;23.08;21.38;;;;;;;;;;5134808;27;20646;-75
2022/08/27 10:49:08;;;;;;;23.40;21.60;;;;;;;;;;5134740;27;20212;-79
2022/08/27 10:51:36;;;;;;;23.58;21.77;;;;;;;;;;5134731;27;20708;-78
2022/08/27 10:54:04;;;;;;;23.23;21.42;;;;;;;;;;5134882;27;20196;-77
2022/08/27 10:56:34;;;;;;;22.67;20.88;;;;;;;;;;5134830;27;20192;-75
2022/08/27 10:59:05;;;;;;;22.75;21.05;;;;;;;;;;5134848;27;20227;-74
2022/08/27 11:01:37;;;;;;;24.17;22.27;;;;;;;;;;5134766;27;20182;-76
2022/08/27 11:04:08;;;;;;;24.20;22.40;;;;;;;;;;5134459;27;20272;-76
2022/08/27 11:06:37;;;;;;;23.40;21.60;;;;;;;;;;5134673;27;20556;-77
2022/08/27 11:09:06;;;;;;;24.83;22.92;;;;;;;;;;5134551;27;20319;-78
2022/08/27 11:11:37;;;;;;;24.05;22.25;;;;;;;;;;5134535;27;20193;-79
2022/08/27 11:14:06;;;;;;;23.00;21.20;;;;;;;;;;5134564;27;20185;-77
2022/08/27 11:16:35;;;;;;;23.75;21.95;;;;;;;;;;5134489;27;20275;-78
2022/08/27 11:19:06;;;;;;;23.67;21.88;;;;;;;;;;5134392;27;20196;-76
2022/08/27 11:21:43;;;;;;;23.23;21.42;;;;;;;;;;5134412;27;20196;-79
2022/08/27 11:24:16;;;;;;;23.40;21.60;;;;;;;;;;5134558;27;20212;-79
2022/08/27 11:26:42;;;;;;;23.80;22.00;;;;;;;;;;5134308;27;20185;-79
2022/08/27 11:29:14;;;;;;;23.25;21.45;;;;;;;;;;5134131;27;20232;-77
2022/08/27 11:31:44;;;;;;;23.80;22.00;;;;;;;;;;5133975;27;20228;-80
2022/08/27 11:34:14;;;;;;;23.27;21.48;;;;;;;;;;5133824;27;20284;-74
2022/08/27 11:36:54;;;;;;;22.73;21.02;;;;;;;;;;5134176;27;20568;-81
2022/08/27 11:39:31;;;;;;;23.55;21.75;;;;;;;;;;5134127;27;20267;-78
2022/08/27 11:42:02;;;;;;;23.85;22.05;;;;;;;;;;5133756;27;20184;-76
2022/08/27 11:44:28;;;;;;;23.10;21.30;;;;;;;;;;5133634;27;20318;-79
2022/08/27 11:46:56;;;;;;;23.60;21.80;;;;;;;;;;5133340;27;20192;-78
2022/08/27 11:49:28;;;;;;;23.00;21.20;;;;;;;;;;5133938;27;20228;-80
2022/08/27 11:52:01;;;;;;;23.83;22.00;;;;;;;;;;5133913;27;20238;-78
2022/08/27 11:54:30;;;;;;;24.00;22.10;;;;;;;;;;5133487;27;20731;-77
2022/08/27 11:56:56;;;;;;;23.40;21.60;;;;;;;;;;5133722;27;20197;-78
2022/08/27 11:59:28;;;;;;;24.40;22.50;;;;;;;;;;5133774;27;20200;-78
2022/08/27 12:01:56;;;;;;;23.52;21.73;;;;;;;;;;5133495;27;20614;-77
2022/08/27 12:04:32;;;;;;;24.02;22.13;;;;;;;;;;5133553;27;20378;-78
2022/08/27 12:07:03;;;;;;;23.58;21.75;;;;;;;;;;5133374;27;20194;-77
2022/08/27 12:09:30;;;;;;;24.55;22.65;;;;;;;;;;5133101;27;20226;-78
2022/08/27 12:12:03;;;;;;;24.33;22.42;;;;;;;;;;5133300;27;20223;-77
2022/08/27 12:14:35;;;;;;;24.17;22.27;;;;;;;;;;5133547;27;20628;-79
2022/08/27 12:17:07;;;;;;;25.10;23.10;;;;;;;;;;5133629;27;20630;-80
2022/08/27 12:19:41;;;;;;;24.20;22.30;;;;;;;;;;5133515;27;20220;-78
2022/08/27 12:22:17;;;;;;;24.17;22.27;;;;;;;;;;5133601;27;20291;-80
2022/08/27 12:24:49;;;;;;;25.75;23.75;;;;;;;;;;5133428;27;20180;-77
2022/08/27 12:27:25;;;;;;;24.08;22.20;;;;;;;;;;5133148;27;20185;-77
2022/08/27 12:29:53;;;;;;;24.10;22.23;;;;;;;;;;5132924;28;20211;-77
2022/08/27 12:32:25;;;;;;;24.55;22.65;;;;;;;;;;5132900;28;20315;-77
2022/08/27 12:34:54;;;;;;;24.00;22.10;;;;;;;;;;5133355;28;20599;-78
2022/08/27 12:37:25;;;;;;;24.45;22.55;;;;;;;;;;5133583;28;20199;-77
2022/08/27 12:39:53;;;;;;;24.88;22.98;;;;;;;;;;5133311;27;20188;-79
2022/08/27 12:42:21;;;;;;;24.23;22.33;;;;;;;;;;5133170;28;20227;-77
2022/08/27 12:44:53;;;;;;;24.60;22.70;;;;;;;;;;5133230;28;20271;-79
2022/08/27 12:47:20;;;;;;;24.88;22.98;;;;;;;;;;5133150;28;20216;-79
2022/08/27 12:49:48;;;;;;;25.10;23.17;;;;;;;;;;5133141;28;20259;-78
2022/08/27 12:52:20;;;;;;;24.52;22.63;;;;;;;;;;5132772;28;20193;-77
2022/08/27 12:54:54;;;;;;;24.52;22.63;;;;;;;;;;5133157;28;20272;-78
2022/08/27 12:57:25;;;;;;;25.38;23.38;;;;;;;;;;5132867;28;20265;-79
2022/08/27 12:59:56;;;;;;;25.55;23.35;;;;;;;;;;5136290;27;20224;-76
2022/08/27 13:02:29;;;;;;;25.73;23.73;;;;;;;;;;5137110;27;20277;-75
2022/08/27 13:04:57;;;;;;;25.45;23.45;;;;;;;;;;5136885;27;20191;-77
2022/08/27 13:07:28;;;;;;;24.48;22.58;;;;;;;;;;5136635;27;20283;-76
2022/08/27 13:09:56;;;;;;;24.45;22.55;;;;;;;;;;5136944;27;20670;-79
2022/08/27 13:12:25;;;;;;;23.83;21.95;;;;;;;;;;5136895;27;20193;-79
2022/08/27 13:14:52;;;;;;;24.40;22.50;;;;;;;;;;5136621;27;20759;-77
2022/08/27 13:17:20;;;;;;;23.90;22.00;;;;;;;;;;5136622;27;20192;-80
2022/08/27 13:19:51;;;;;;;24.98;22.98;;;;;;;;;;5136807;27;20192;-78
2022/08/27 13:22:21;;;;;;;24.50;22.50;;;;;;;;;;5136490;27;20180;-78
2022/08/27 13:24:50;;;;;;;24.75;22.73;;;;;;;;;;5136410;27;20196;-79
2022/08/27 13:27:23;;;;;;;24.50;22.60;;;;;;;;;;5136374;27;20287;-81
2022/08/27 13:29:50;;;;;;;24.20;22.27;;;;;;;;;;5136188;27;20204;-80
2022/08/27 13:32:17;;;;;;;24.52;22.52;;;;;;;;;;5136353;27;20367;-78
2022/08/27 13:34:44;;;;;;;24.80;22.80;;;;;;;;;;5136539;27;20231;-79
2022/08/27 13:37:22;;;;;;;24.40;22.40;;;;;;;;;;5136158;27;20199;-78
2022/08/27 13:39:52;;;;;;;25.33;23.33;;;;;;;;;;5136485;27;20245;-80
2022/08/27 13:42:21;;;;;;;24.50;22.40;;;;;;;;;;5136663;27;20256;-77
2022/08/27 13:44:48;;;;;;;24.92;22.85;;;;;;;;;;5136449;27;20550;-78
2022/08/27 13:47:16;;;;;;;25.40;23.40;;;;;;;;;;5135926;27;20192;-79
2022/08/27 13:49:43;;;;;;;24.55;22.58;;;;;;;;;;5135817;27;20669;-77
2022/08/27 13:52:19;;;;;;;24.83;22.83;;;;;;;;;;5136108;27;20196;-77
2022/08/27 13:54:45;;;;;;;23.98;22.08;;;;;;;;;;5136496;27;20220;-80
2022/08/27 13:57:23;;;;;;;25.17;23.17;;;;;;;;;;5136351;27;20203;-76
2022/08/27 13:59:51;;;;;;;25.42;23.42;;;;;;;;;;5136153;27;20632;-79
2022/08/27 14:02:28;;;;;;;25.35;23.35;;;;;;;;;;5135636;27;20678;-78
2022/08/27 14:05:08;;;;;;;25.38;23.38;;;;;;;;;;5136008;27;20230;-77
2022/08/27 14:07:36;;;;;;;25.40;23.40;;;;;;;;;;5135503;27;20180;-78
2022/08/27 14:10:06;;;;;;;25.15;23.15;;;;;;;;;;5135160;27;20223;-77
2022/08/27 14:12:34;;;;;;;25.63;23.60;;;;;;;;;;5136253;27;20194;-79
2022/08/27 14:15:15;;;;;;;25.92;23.88;;;;;;;;;;5135720;27;20199;-78
2022/08/27 14:17:44;;;;;;;26.95;24.85;;;;;;;;;;5135701;27;20271;-77
2022/08/27 14:20:15;;;;;;;26.45;24.35;;;;;;;;;;5135500;27;20706;-78
2022/08/27 14:22:42;;;;;;;26.30;24.10;;;;;;;;;;5135557;27;20198;-78
2022/08/27 14:25:09;;;;;;;25.92;23.83;;;;;;;;;;5135234;27;20692;-76
2022/08/27 14:27:36;;;;;;;26.00;23.90;;;;;;;;;;5135250;27;20220;-77
2022/08/27 14:30:04;;;;;;;25.67;23.58;;;;;;;;;;5134953;27;20220;-78
2022/08/27 14:32:32;;;;;;;25.35;23.25;;;;;;;;;;5134915;27;20714;-77